Terminal Aerodrome Forecast
Issued by NWS

Home | Current Version | Previous Version | Text Only | Print | Product List | Glossary On
Versions: 1 2 3 4 5 6 7 8 9 10 11 12 13 14 15 16 17 18 19 20 21 22 23 24 25 26 27 28 29 30 31 32 33 34 35
000
FTUS45 KBOU 170529
TAFAPA
TAF
KAPA 170529Z 1706/1806 17004KT P6SM FEW080 SCT140
     FM171400 VRB05KT P6SM SCT080 BKN120 OVC200
     FM171900 10006KT P6SM SCT050 BKN070 OVC100 PROB30 1720/1723
      -SHSN SCT040 BKN060
     FM172300 06007KT P6SM VCSH SCT025 BKN040 OVC050
      TEMPO 1723/1803 2SM -SN BR OVC025
     FM180300 02006KT P6SM SCT025 OVC040 PROB30 1803/1806 4SM -SN BR
      BKN025=

USA.gov is the U.S. government's official web portal to all federal, state and local government web resources and services.